Time;durP1;ratioP1;P1;durP2;ratioP2;P2;SDS_P1;SDS_P2;PMS_P1;PMS_P2;Temp;Humidity;BMP_temperature;BMP_pressure;BME280_temperature;BME280_humidity;BME280_pressure;Samples;Min_cycle;Max_cycle;Signal;HPM_P1;HPM_P2
2023/12/31 00:01:18;;;;;;;56.40;37.90;;;;;;;2.96;100.00;100354.98;109856;1270;23086;-83
2023/12/31 00:04:02;;;;;;;58.90;34.60;;;;;;;2.94;100.00;100355.52;109784;1270;22955;-81
2023/12/31 00:06:47;;;;;;;81.40;54.60;;;;;;;2.91;100.00;100360.51;110101;1270;21986;-84
2023/12/31 00:09:35;;;;;;;85.80;59.50;;;;;;;2.89;100.00;100362.06;110414;1265;21978;-82
2023/12/31 00:12:08;;;;;;;81.40;54.60;;;;;;;2.89;100.00;100357.42;110347;1265;22250;-82
2023/12/31 00:14:50;;;;;;;92.60;64.20;;;;;;;2.91;100.00;100352.43;110323;1265;23711;-82
2023/12/31 00:17:38;;;;;;;70.40;48.60;;;;;;;2.94;100.00;100352.77;110421;1264;22747;-82
2023/12/31 00:20:46;;;;;;;73.40;47.20;;;;;;;3.09;100.00;100354.55;108375;1287;544014;-83
2023/12/31 00:23:24;;;;;;;77.60;45.50;;;;;;;3.02;100.00;100350.45;110300;1268;21994;-83
2023/12/31 00:26:15;;;;;;;71.00;43.90;;;;;;;3.03;100.00;100356.65;110172;1264;23077;-82
2023/12/31 00:28:56;;;;;;;73.80;45.60;;;;;;;2.98;100.00;100352.56;110330;1268;21967;-82
2023/12/31 00:31:48;;;;;;;71.10;43.20;;;;;;;2.98;100.00;100354.27;110960;1260;22819;-83
2023/12/31 00:35:09;;;;;;;77.10;44.70;;;;;;;2.94;100.00;100357.05;111378;1254;298238;-82
2023/12/31 00:37:47;;;;;;;71.50;43.80;;;;;;;2.91;100.00;100355.53;110582;1263;22052;-83
2023/12/31 00:40:30;;;;;;;68.00;41.20;;;;;;;2.89;100.00;100358.46;109651;1271;22020;-81
2023/12/31 00:47:13;;;;;;;61.10;37.10;;;;;;;2.89;100.00;100360.02;109736;1271;23519;-81
2023/12/31 00:50:17;;;;;;;64.60;37.30;;;;;;;2.90;100.00;100361.20;109236;1276;22003;-82
2023/12/31 00:53:32;;;;;;;;;;;;;;;;;;;;;
2023/12/31 00:57:16;;;;;;;63.60;35.70;;;;;;;2.93;100.00;100366.69;109132;1276;23740;-82
2023/12/31 01:00:13;;;;;;;52.60;32.80;;;;;;;2.94;100.00;100368.23;109893;1270;22296;-80
2023/12/31 01:03:03;;;;;;;51.20;32.20;;;;;;;2.95;100.00;100371.48;109715;1257;22453;-81
2023/12/31 01:05:45;;;;;;;46.00;29.10;;;;;;;2.96;100.00;100376.29;109436;1274;22478;-80
2023/12/31 01:08:21;;;;;;;52.40;29.50;;;;;;;2.96;100.00;100374.41;110101;1261;23623;-80
2023/12/31 01:11:13;;;;;;;40.80;25.60;;;;;;;2.95;100.00;100374.91;110404;1268;22017;-80
2023/12/31 01:14:03;;;;;;;43.60;27.00;;;;;;;2.95;100.00;100372.70;110273;1268;22057;-82
2023/12/31 01:17:11;;;;;;;51.20;30.60;;;;;;;2.94;100.00;100372.88;110126;1268;22042;-82
2023/12/31 01:20:14;;;;;;;41.80;29.20;;;;;;;2.91;100.00;100369.97;109588;1273;22023;-80
2023/12/31 01:23:01;;;;;;;51.70;37.20;;;;;;;2.93;100.00;100374.42;109653;1269;22416;-81
2023/12/31 01:25:49;;;;;;;60.20;42.80;;;;;;;2.94;100.00;100381.45;110067;1266;22447;-78
2023/12/31 01:28:46;;;;;;;57.70;41.00;;;;;;;2.92;100.00;100380.27;110433;1259;21965;-79
2023/12/31 01:31:48;;;;;;;71.10;44.80;;;;;;;2.91;100.00;100377.02;110974;1260;21982;-82
2023/12/31 01:34:29;;;;;;;41.80;28.50;;;;;;;2.93;100.00;100373.39;110394;1267;23690;-81
2023/12/31 01:37:18;;;;;;;53.90;32.00;;;;;;;2.93;100.00;100373.23;110345;1266;22006;-82
2023/12/31 01:40:21;;;;;;;46.00;29.50;;;;;;;2.93;100.00;100370.30;110198;1267;22504;-81
2023/12/31 01:42:58;;;;;;;45.70;28.10;;;;;;;2.94;100.00;100369.09;110015;1264;21987;-81
2023/12/31 01:45:34;;;;;;;35.30;25.80;;;;;;;2.93;100.00;100373.40;110208;1266;22885;-80
2023/12/31 01:48:12;;;;;;;71.40;37.10;;;;;;;2.91;100.00;100371.69;110276;1268;23164;-80
2023/12/31 01:50:44;;;;;;;61.70;33.70;;;;;;;2.90;100.00;100370.14;109310;1274;22971;-80
2023/12/31 01:53:40;;;;;;;44.00;27.60;;;;;;;2.91;100.00;100371.51;109714;1269;23616;-86
2023/12/31 01:56:28;;;;;;;45.50;28.00;;;;;;;2.86;100.00;100371.37;110036;1269;23131;-85
2023/12/31 01:59:37;;;;;;;43.30;27.00;;;;;;;2.84;100.00;100371.21;109801;1269;21975;-85
2023/12/31 02:02:58;;;;;;;46.30;28.70;;;;;;;2.81;100.00;100371.40;110354;1259;21953;-81
2023/12/31 02:05:43;;;;;;;44.80;28.70;;;;;;;2.79;100.00;100370.38;111052;1248;21998;-81
2023/12/31 02:08:16;;;;;;;49.90;29.00;;;;;;;2.77;100.00;100376.57;110954;1254;21970;-80
2023/12/31 02:10:57;;;;;;;46.30;28.40;;;;;;;2.73;100.00;100371.61;111671;1253;21970;-82
2023/12/31 02:13:35;;;;;;;43.10;28.40;;;;;;;2.67;100.00;100373.71;111094;1258;21938;-80
2023/12/31 02:16:33;;;;;;;39.90;26.70;;;;;;;2.63;100.00;100370.64;111150;1258;21975;-80
2023/12/31 02:19:21;;;;;;;42.70;26.50;;;;;;;2.59;100.00;100375.64;110474;1265;24331;-82
2023/12/31 02:21:55;;;;;;;39.30;26.50;;;;;;;2.56;100.00;100377.38;110397;1265;21972;-82
2023/12/31 02:24:54;;;;;;;39.90;26.70;;;;;;;2.51;100.00;100381.34;110253;1264;21977;-82
2023/12/31 02:27:36;;;;;;;42.20;26.20;;;;;;;2.49;100.00;100385.14;110346;1264;21982;-82
2023/12/31 02:30:11;;;;;;;;;;;;;;;2.49;100.00;100386.17;110525;1264;21998;-83
2023/12/31 02:32:45;;;;;;;43.50;26.20;;;;;;;2.38;100.00;100386.20;110874;1259;24306;-81
2023/12/31 02:35:45;;;;;;;35.70;24.80;;;;;;;2.34;100.00;100385.19;111055;1259;21981;-82
2023/12/31 02:38:19;;;;;;;37.50;25.90;;;;;;;2.32;100.00;100383.13;111404;1254;21974;-80
2023/12/31 02:41:14;;;;;;;43.30;32.00;;;;;;;2.30;100.00;100380.91;111511;1253;23103;-83
2023/12/31 02:44:00;;;;;;;43.10;33.30;;;;;;;2.32;100.00;100379.18;111375;1256;22004;-82
2023/12/31 02:47:20;;;;;;;41.70;30.10;;;;;;;2.32;100.00;100377.98;111386;1256;23036;-84
2023/12/31 02:50:21;;;;;;;45.70;31.60;;;;;;;2.32;100.00;100381.24;111091;1256;22003;-83
2023/12/31 02:53:09;;;;;;;38.00;27.30;;;;;;;2.33;100.00;100379.17;111037;1256;23026;-85
2023/12/31 02:57:13;;;;;;;44.80;27.70;;;;;;;2.31;100.00;100376.95;110899;1261;22041;-81
2023/12/31 03:00:52;;;;;;;45.10;29.80;;;;;;;2.27;100.00;100378.35;109581;1272;22001;-80
2023/12/31 03:04:03;;;;;;;54.30;37.30;;;;;;;2.14;100.00;100365.68;109644;1272;21998;-80
2023/12/31 03:06:53;;;;;;;55.00;38.20;;;;;;;2.09;100.00;100362.08;109650;1272;21977;-81
2023/12/31 03:09:39;;;;;;;61.70;41.00;;;;;;;2.14;100.00;100379.92;109634;1271;21984;-80
2023/12/31 03:12:16;;;;;;;50.60;35.70;;;;;;;2.12;100.00;100377.19;109570;1272;22055;-79
2023/12/31 03:14:46;;;;;;;54.40;38.70;;;;;;;2.10;100.00;100373.58;109496;1270;21951;-80
2023/12/31 03:17:26;;;;;;;54.80;40.60;;;;;;;2.11;100.00;100376.33;109839;1270;22195;-79
2023/12/31 03:20:13;;;;;;;53.80;40.70;;;;;;;2.11;100.00;100376.67;109824;1270;22003;-79
2023/12/31 03:22:53;;;;;;;50.00;37.60;;;;;;;2.12;100.00;100374.61;109792;1270;21977;-80
2023/12/31 03:25:29;;;;;;;46.60;36.00;;;;;;;2.14;100.00;100372.55;109790;1266;21995;-81
2023/12/31 03:28:35;;;;;;;51.30;37.10;;;;;;;2.13;100.00;100370.14;109873;1270;22014;-81
2023/12/31 03:31:18;;;;;;;52.00;38.30;;;;;;;2.10;100.00;100370.33;109808;1270;22000;-79
2023/12/31 03:33:59;;;;;;;54.00;39.00;;;;;;;2.06;100.00;100366.39;110374;1265;21941;-83
2023/12/31 03:36:35;;;;;;;51.00;38.60;;;;;;;2.03;100.00;100369.31;110710;1254;23046;-83
2023/12/31 03:39:54;;;;;;;51.00;37.30;;;;;;;2.00;100.00;100367.77;111690;1254;21964;-83
2023/12/31 03:42:51;;;;;;;47.70;36.50;;;;;;;1.98;100.00;100372.42;111123;1259;22356;-80
2023/12/31 03:45:27;;;;;;;42.30;32.30;;;;;;;1.98;100.00;100376.38;110966;1259;22759;-81
2023/12/31 03:48:05;;;;;;;40.40;32.20;;;;;;;1.98;100.00;100374.65;110756;1259;22410;-81
2023/12/31 03:50:42;;;;;;;43.00;32.90;;;;;;;1.99;100.00;100370.70;110897;1259;21966;-82
2023/12/31 03:54:13;;;;;;;42.70;33.40;;;;;;;1.97;100.00;100366.24;110985;1259;22058;-81
2023/12/31 03:56:57;;;;;;;42.20;32.90;;;;;;;1.91;100.00;100363.50;110485;1264;23036;-82
2023/12/31 03:59:51;;;;;;;53.60;46.20;;;;;;;1.88;100.00;100362.48;109839;1264;21942;-82
2023/12/31 04:02:41;;;;;;;44.20;37.00;;;;;;;1.86;100.00;100361.63;110535;1263;23045;-82
2023/12/31 04:05:52;;;;;;;45.90;36.80;;;;;;;1.82;100.00;100355.11;109926;1268;22991;-84
2023/12/31 04:09:05;;;;;;;;;;;;;;;;;;;;;
2023/12/31 04:11:52;;;;;;;40.90;35.40;;;;;;;1.67;100.00;100347.59;109230;1276;22000;-82
2023/12/31 04:14:34;;;;;;;45.00;36.80;;;;;;;1.63;100.00;100345.71;109207;1273;22345;-81
2023/12/31 04:17:26;;;;;;;54.20;43.40;;;;;;;1.58;100.00;100344.34;109558;1269;23606;-82
2023/12/31 04:20:18;;;;;;;72.40;54.10;;;;;;;1.55;100.00;100340.92;109835;1269;24316;-83
2023/12/31 04:23:20;;;;;;;65.60;43.60;;;;;;;1.53;100.00;100339.71;110020;1262;22007;-81
2023/12/31 04:25:58;;;;;;;47.10;36.40;;;;;;;1.54;100.00;100342.80;110845;1262;22399;-80
2023/12/31 04:28:59;;;;;;;49.70;36.80;;;;;;;1.55;100.00;100345.54;110727;1262;21977;-80
2023/12/31 04:31:50;;;;;;;53.20;38.70;;;;;;;1.53;100.00;100340.58;110721;1262;22004;-81
2023/12/31 04:34:36;;;;;;;43.00;34.50;;;;;;;1.53;100.00;100333.02;110897;1262;23022;-82
2023/12/31 04:37:33;;;;;;;49.30;35.80;;;;;;;1.52;100.00;100331.31;110759;1262;21986;-82
2023/12/31 04:40:19;;;;;;;47.70;33.70;;;;;;;1.54;100.00;100329.42;110777;1262;23893;-82
2023/12/31 04:43:12;;;;;;;41.00;34.70;;;;;;;1.56;100.00;100328.73;110032;1268;21988;-82
2023/12/31 04:45:51;;;;;;;43.80;35.40;;;;;;;1.57;100.00;100324.45;110116;1260;21982;-83
2023/12/31 04:48:50;;;;;;;51.20;35.40;;;;;;;1.53;100.00;100319.98;110490;1265;22008;-82
2023/12/31 04:51:28;;;;;;;45.20;35.70;;;;;;;1.50;100.00;100317.41;110229;1254;21963;-81
2023/12/31 04:53:59;;;;;;;45.70;33.10;;;;;;;1.45;100.00;100314.35;110502;1260;23033;-82
2023/12/31 04:56:38;;;;;;;37.90;31.70;;;;;;;1.40;100.00;100313.48;110324;1265;21992;-81
2023/12/31 04:59:23;;;;;;;38.50;29.90;;;;;;;1.36;100.00;100312.47;110365;1265;21988;-81
2023/12/31 05:02:16;;;;;;;38.20;30.10;;;;;;;1.30;100.00;100308.17;110942;1258;23583;-82
2023/12/31 05:04:59;;;;;;;38.50;29.70;;;;;;;1.25;100.00;100301.15;111207;1257;23013;-81
2023/12/31 05:07:55;;;;;;;58.90;48.80;;;;;;;1.25;100.00;100309.38;111304;1252;21962;-81
2023/12/31 05:10:51;;;;;;;60.30;46.20;;;;;;;1.25;100.00;100308.02;111039;1258;23787;-82
2023/12/31 05:14:09;;;;;;;39.60;30.70;;;;;;;1.26;100.00;100300.82;110906;1258;22091;-80
2023/12/31 05:16:52;;;;;;;42.90;33.10;;;;;;;1.29;100.00;100300.13;111046;1258;23020;-80
2023/12/31 05:19:54;;;;;;;42.90;33.60;;;;;;;1.28;100.00;100294.65;110401;1265;21983;-81
2023/12/31 05:22:33;;;;;;;43.20;33.00;;;;;;;1.31;100.00;100292.58;110343;1265;23539;-81
2023/12/31 05:25:10;;;;;;;50.20;37.70;;;;;;;1.34;100.00;100290.86;110068;1265;22014;-83
2023/12/31 05:27:51;;;;;;;39.50;32.10;;;;;;;1.36;100.00;100290.52;110425;1259;23844;-80
2023/12/31 05:30:42;;;;;;;47.40;32.10;;;;;;;1.38;100.00;100289.84;110920;1259;21979;-81
2023/12/31 05:37:29;;;;;;;41.20;31.40;;;;;;;1.33;100.00;100283.84;110613;1260;22024;-81
2023/12/31 05:40:11;;;;;;;38.00;30.60;;;;;;;1.30;100.00;100283.33;110659;1260;22712;-81
2023/12/31 05:43:17;;;;;;;41.00;28.90;;;;;;;1.28;100.00;100282.11;110813;1260;21967;-80
2023/12/31 05:46:13;;;;;;;;;;;;;;;;;;;;;
2023/12/31 05:49:26;;;;;;;49.40;33.00;;;;;;;1.21;100.00;100278.19;109802;1271;23721;-83
2023/12/31 05:52:38;;;;;;;45.70;31.70;;;;;;;1.15;100.00;100280.08;109054;1277;23647;-82
2023/12/31 05:55:41;;;;;;;47.00;34.20;;;;;;;1.12;100.00;100276.64;108988;1277;21844;-83
2023/12/31 05:59:03;;;;;;;44.60;30.50;;;;;;;1.10;100.00;100271.16;109105;1277;22003;-81
2023/12/31 06:02:35;;;;;;;46.90;29.20;;;;;;;1.03;100.00;100270.13;109078;1277;21985;-80
2023/12/31 06:05:44;;;;;;;44.20;30.80;;;;;;;0.94;100.00;100272.53;109347;1275;23036;-81
2023/12/31 06:08:26;;;;;;;46.20;33.30;;;;;;;0.91;100.00;100269.29;109319;1274;23707;-81
2023/12/31 06:11:29;;;;;;;48.60;34.20;;;;;;;0.88;100.00;100262.59;109468;1274;21983;-81
2023/12/31 06:14:26;;;;;;;;;;;;;;;;;;;;;
2023/12/31 06:17:14;;;;;;;48.70;36.90;;;;;;;0.98;100.00;100255.75;109517;1275;23860;-82
2023/12/31 06:19:49;;;;;;;48.40;37.80;;;;;;;1.02;100.00;100257.80;109083;1279;23682;-82
2023/12/31 06:22:36;;;;;;;43.00;34.40;;;;;;;1.04;100.00;100258.66;109044;1279;22766;-81
2023/12/31 06:25:51;;;;;;;44.30;33.80;;;;;;;1.05;100.00;100259.33;109091;1275;22128;-81
2023/12/31 06:28:39;;;;;;;47.10;35.50;;;;;;;1.07;100.00;100261.39;109096;1271;21983;-81
2023/12/31 06:31:40;;;;;;;47.80;36.70;;;;;;;1.10;100.00;100257.61;109710;1265;22002;-81
2023/12/31 06:34:23;;;;;;;42.60;32.10;;;;;;;1.11;100.00;100257.61;109858;1270;21983;-82
2023/12/31 06:37:23;;;;;;;44.30;34.60;;;;;;;1.12;100.00;100255.05;109595;1272;22019;-82
2023/12/31 06:40:08;;;;;;;38.20;30.60;;;;;;;1.13;100.00;100249.05;109375;1273;21986;-80
2023/12/31 06:43:00;;;;;;;44.10;31.10;;;;;;;1.13;100.00;100245.79;109399;1273;21984;-82
2023/12/31 06:46:04;;;;;;;35.70;28.90;;;;;;;1.14;100.00;100251.61;109784;1264;22039;-83
2023/12/31 06:49:10;;;;;;;45.20;30.60;;;;;;;1.17;100.00;100253.17;110472;1264;22013;-83
2023/12/31 06:51:53;;;;;;;41.10;32.40;;;;;;;1.21;100.00;100253.67;110086;1263;21983;-81
2023/12/31 06:55:12;;;;;;;;;;;;;;;;;;;;;
2023/12/31 06:57:58;;;;;;;58.90;36.80;;;;;;;1.22;100.00;100253.85;110306;1268;23033;-83
2023/12/31 07:01:09;;;;;;;40.70;32.90;;;;;;;1.25;100.00;100254.02;110233;1268;21979;-83
2023/12/31 07:04:00;;;;;;;;;;;;;;;;;;;;;
2023/12/31 07:10:50;;;;;;;;;;;;;;;;;;;;;
2023/12/31 07:13:36;;;;;;;50.20;36.00;;;;;;;1.29;100.00;100252.11;109807;1268;23599;-83
2023/12/31 07:16:55;;;;;;;49.50;39.40;;;;;;;1.34;100.00;100249.71;109816;1263;22014;-81
2023/12/31 07:20:39;;;;;;;45.60;36.50;;;;;;;1.28;100.00;100245.61;110834;1263;22001;-84
2023/12/31 07:24:04;;;;;;;39.30;31.30;;;;;;;1.36;100.00;100252.28;110794;1263;22174;-83
2023/12/31 07:27:55;;;;;;;;;;;;;;;;;;;;;
2023/12/31 07:31:12;;;;;;;38.00;31.50;;;;;;;1.46;100.00;100240.77;110658;1263;21977;-81
2023/12/31 07:34:26;;;;;;;40.30;30.60;;;;;;;1.44;100.00;100224.48;110785;1257;24154;-83
2023/12/31 07:37:29;;;;;;;36.90;29.70;;;;;;;1.49;100.00;100221.55;110324;1264;21973;-84
2023/12/31 07:40:53;;;;;;;38.00;33.00;;;;;;;1.59;100.00;100224.79;110312;1264;21969;-82
2023/12/31 07:49:03;;;;;;;;;;;;;;;;;;;;;
2023/12/31 07:52:26;;;;;;;;;;;;;;;;;;;;;
2023/12/31 07:56:44;;;;;;;;;;;;;;;;;;;;;
2023/12/31 08:04:44;;;;;;;42.50;30.40;;;;;;;1.84;100.00;100218.52;108765;1287;22010;-89
2023/12/31 08:08:39;;;;;;;36.70;30.20;;;;;;;1.86;100.00;100221.27;108734;1287;22007;-87
2023/12/31 08:12:35;;;;;;;42.50;35.00;;;;;;;1.89;100.00;100223.48;108201;1291;22021;-87
2023/12/31 08:16:21;;;;;;;33.40;28.90;;;;;;;1.90;100.00;100222.27;108591;1286;22015;-87
2023/12/31 08:20:36;;;;;;;36.90;29.00;;;;;;;1.94;100.00;100221.05;109085;1282;22002;-87
2023/12/31 08:23:24;;;;;;;37.80;30.70;;;;;;;1.98;100.00;100216.05;108574;1290;22003;-87
2023/12/31 08:26:13;;;;;;;44.90;35.00;;;;;;;2.07;100.00;100213.60;108411;1290;23632;-88
2023/12/31 08:29:32;;;;;;;43.80;32.60;;;;;;;2.18;100.00;100209.60;108326;1286;22505;-90
2023/12/31 08:32:33;;;;;;;57.80;34.80;;;;;;;2.18;100.00;100190.19;108581;1286;22024;-89
2023/12/31 08:35:49;;;;;;;44.30;34.00;;;;;;;2.39;100.00;100204.31;108628;1286;22005;-86
2023/12/31 08:39:41;;;;;;;;;;;;;;;;;;;;;
2023/12/31 08:43:18;;;;;;;56.90;43.00;;;;;;;2.68;100.00;100211.16;110274;1269;22367;-87
2023/12/31 08:46:52;;;;;;;73.20;50.00;;;;;;;2.80;100.00;100206.77;109645;1275;22007;-89
2023/12/31 08:50:08;;;;;;;81.20;53.00;;;;;;;2.94;100.00;100205.11;109862;1269;22339;-86
2023/12/31 08:53:20;;;;;;;74.80;52.90;;;;;;;3.06;100.00;100207.91;109763;1274;22165;-88
2023/12/31 08:56:25;;;;;;;;;;;;;;;;;;;;;
2023/12/31 08:59:40;;;;;;;72.60;55.20;;;;;;;3.26;100.00;100199.98;109286;1273;21731;-89
2023/12/31 09:03:05;;;;;;;58.30;46.90;;;;;;;3.35;100.00;100197.63;109781;1272;23729;-89
2023/12/31 09:06:51;;;;;;;;;;;;;;;;;;;;;
2023/12/31 09:10:01;;;;;;;46.80;35.40;;;;;;;3.55;100.00;100201.39;109875;1275;22049;-87
2023/12/31 09:18:40;;;;;;;40.40;31.70;;;;;;;3.64;100.00;100192.50;109204;1280;22000;-83
2023/12/31 09:22:22;;;;;;;;;;;;;;;;;;;;;
2023/12/31 09:25:56;;;;;;;;;;;;;;;;;;;;;
2023/12/31 09:29:22;;;;;;;;;;;;;;;;;;;;;
2023/12/31 09:37:16;;;;;;;;;;;;;;;;;;;;;
2023/12/31 09:40:44;;;;;;;47.30;40.50;;;;;;;4.28;100.00;100165.99;108410;1292;21948;-81
2023/12/31 09:44:08;;;;;;;;;;;;;;;;;;;;;
2023/12/31 09:47:17;;;;;;;36.20;28.10;;;;;;;4.54;100.00;100161.79;107800;1288;22223;-81
2023/12/31 09:50:49;;;;;;;45.40;31.80;;;;;;;4.63;100.00;100160.29;108517;1288;23643;-81
2023/12/31 09:53:34;;;;;;;37.70;31.80;;;;;;;4.76;100.00;100155.23;108434;1294;22127;-80
2023/12/31 10:00:20;;;;;;;34.90;28.10;;;;;;;4.92;100.00;100141.16;107179;1302;23082;-82
2023/12/31 10:03:12;;;;;;;31.40;26.90;;;;;;;5.01;100.00;100136.50;107633;1297;22025;-81
2023/12/31 10:10:39;;;;;;;;;;;;;;;;;;;;;
2023/12/31 10:48:52;;;;;;;;;;;;;;;;;;;;;
2023/12/31 11:20:19;;;;;;;57.80;34.10;;;;;;;7.08;100.00;99995.55;109702;1274;22000;-88
2023/12/31 11:24:21;;;;;;;42.90;28.80;;;;;;;7.06;100.00;99991.08;109714;1276;22002;-89
2023/12/31 11:27:37;;;;;;;41.80;28.20;;;;;;;7.24;100.00;100001.30;109278;1276;22006;-84
2023/12/31 11:31:03;;;;;;;52.00;29.00;;;;;;;7.24;100.00;99996.63;108982;1274;23781;-83
2023/12/31 11:33:42;;;;;;;44.20;32.50;;;;;;;7.22;100.00;99989.77;109402;1274;22018;-86
2023/12/31 11:36:31;;;;;;;37.80;29.50;;;;;;;7.28;100.00;99984.92;109160;1276;22465;-87
2023/12/31 11:46:14;;;;;;;;;;;;;;;;;;;;;
2023/12/31 11:50:02;;;;;;;32.70;24.00;;;;;;;7.23;100.00;99953.05;109220;1281;23649;-89
2023/12/31 11:54:55;;;;;;;34.40;23.20;;;;;;;7.22;100.00;99942.34;105096;1285;5447521;-88
2023/12/31 11:59:15;;;;;;;;;;;;;;;;;;;;;
2023/12/31 12:17:17;;;;;;;33.00;26.60;;;;;;;8.62;100.00;99894.34;106754;1274;3721496;-88
2023/12/31 12:20:55;;;;;;;33.70;24.50;;;;;;;8.03;100.00;99888.96;110824;1262;21970;-89
2023/12/31 12:33:02;;;;;;;32.60;24.80;;;;;;;7.35;100.00;99880.14;109089;1280;22423;-83
2023/12/31 12:36:15;;;;;;;42.60;29.90;;;;;;;7.38;100.00;99880.91;108792;1280;23627;-86
2023/12/31 12:38:48;;;;;;;31.60;23.80;;;;;;;7.33;100.00;99874.13;108579;1283;22004;-84
2023/12/31 12:42:05;;;;;;;34.00;26.20;;;;;;;7.20;100.00;99862.80;108702;1283;23870;-85
2023/12/31 12:46:14;;;;;;;;;;;;;;;;;;;;;
2023/12/31 12:49:36;;;;;;;35.40;25.70;;;;;;;7.18;100.00;99866.84;109543;1274;22049;-91
2023/12/31 12:53:04;;;;;;;44.40;29.10;;;;;;;7.18;100.00;99867.20;109530;1274;21998;-83
2023/12/31 12:56:24;;;;;;;;;;;;;;;;;;;;;
2023/12/31 13:00:46;;;;;;;28.20;20.40;;;;;;;7.00;100.00;99842.30;109059;1281;21992;-87
2023/12/31 13:04:21;;;;;;;28.50;22.40;;;;;;;7.03;100.00;99849.30;108664;1282;22014;-87
2023/12/31 13:08:08;;;;;;;34.70;25.80;;;;;;;6.99;100.00;99847.54;108581;1287;22024;-87
2023/12/31 13:12:37;;;;;;;;;;;;;;;;;;;;;
2023/12/31 13:17:21;;;;;;;49.10;36.90;;;;;;;6.93;100.00;99827.83;108738;1286;23109;-84
2023/12/31 13:21:44;;;;;;;44.60;33.80;;;;;;;6.92;100.00;99818.15;108673;1287;22029;-85
2023/12/31 13:29:59;;;;;;;;;;;;;;;;;;;;;
2023/12/31 13:33:31;;;;;;;37.70;29.20;;;;;;;6.88;100.00;99798.23;108161;1295;22035;-86
2023/12/31 13:36:24;;;;;;;45.60;33.90;;;;;;;6.89;100.00;99799.57;108104;1292;22019;-87
2023/12/31 13:40:06;;;;;;;;;;;;;;;;;;;;;
2023/12/31 13:43:37;;;;;;;;;;;;;;;;;;;;;
2023/12/31 13:47:37;;;;;;;;;;;;;;;;;;;;;
2023/12/31 13:51:57;;;;;;;;;;;;;;;;;;;;;
2023/12/31 13:54:28;;;;;;;37.10;30.10;;;;;;;6.56;100.00;99771.02;108383;1289;21983;-85
2023/12/31 13:57:09;;;;;;;46.40;36.20;;;;;;;6.54;100.00;99768.84;108460;1289;22004;-84
2023/12/31 13:59:54;;;;;;;47.80;34.90;;;;;;;6.52;100.00;99765.60;107895;1292;22013;-84
2023/12/31 14:03:20;;;;;;;;;;;;;;;;;;;;;
2023/12/31 14:06:45;;;;;;;;;;;;;;;;;;;;;
2023/12/31 14:09:29;;;;;;;51.80;39.40;;;;;;;6.34;100.00;99747.30;108359;1286;23007;-82
2023/12/31 14:12:31;;;;;;;46.20;35.30;;;;;;;6.35;100.00;99741.08;108557;1286;23829;-79
2023/12/31 14:15:18;;;;;;;57.40;40.80;;;;;;;6.32;100.00;99738.92;108645;1279;23070;-80
2023/12/31 14:21:51;;;;;;;60.80;46.30;;;;;;;6.18;100.00;99727.25;108250;1292;22136;-81
2023/12/31 14:24:40;;;;;;;68.80;47.70;;;;;;;6.13;100.00;99721.49;108082;1292;22010;-89
2023/12/31 14:27:23;;;;;;;62.00;47.40;;;;;;;6.04;100.00;99709.17;108436;1282;23205;-85
2023/12/31 14:30:23;;;;;;;57.00;43.40;;;;;;;6.07;100.00;99721.86;108685;1276;22008;-86
2023/12/31 14:33:11;;;;;;;;;;;;;;;;;;;;;
2023/12/31 14:37:32;;;;;;;50.50;39.30;;;;;;;5.95;100.00;99714.08;109318;1275;23631;-84
2023/12/31 14:40:35;;;;;;;;;;;;;;;;;;;;;
2023/12/31 14:47:27;;;;;;;62.90;43.60;;;;;;;5.84;100.00;99700.19;108794;1286;22006;-85
2023/12/31 14:50:11;;;;;;;65.10;47.50;;;;;;;5.83;100.00;99695.58;108492;1286;22009;-83
2023/12/31 14:52:51;;;;;;;50.80;41.10;;;;;;;5.82;100.00;99692.67;108526;1286;22200;-83
2023/12/31 14:55:24;;;;;;;57.30;41.30;;;;;;;5.80;100.00;99687.55;108603;1286;22009;-80
2023/12/31 14:58:25;;;;;;;52.60;41.00;;;;;;;5.79;100.00;99684.12;108774;1278;22078;-81
2023/12/31 15:01:00;;;;;;;56.40;39.60;;;;;;;5.76;100.00;99680.07;109173;1278;24189;-84
2023/12/31 15:03:46;;;;;;;;;;;;;;;;;;;;;
2023/12/31 15:07:16;;;;;;;;;;;;;;;;;;;;;
2023/12/31 15:11:56;;;;;;;65.00;44.60;;;;;;;5.67;100.00;99683.44;109703;1273;21990;-83
2023/12/31 15:15:46;;;;;;;50.30;38.10;;;;;;;5.59;100.00;99687.46;109083;1282;22056;-82
2023/12/31 15:18:53;;;;;;;56.30;39.20;;;;;;;5.58;100.00;99679.88;109355;1275;21976;-84
2023/12/31 15:23:23;;;;;;;;;;;;;;;;;;;;;
2023/12/31 15:26:43;;;;;;;;;;;;;;;;;;;;;
2023/12/31 15:40:39;;;;;;;77.30;60.50;;;;;;;6.92;100.00;99660.16;108500;1285;549692;-83
2023/12/31 15:44:22;;;;;;;59.90;46.50;;;;;;;6.95;100.00;99658.06;107038;1276;2921012;-82
2023/12/31 15:47:58;;;;;;;;;;;;;;;;;;;;;
2023/12/31 15:50:49;;;;;;;59.30;42.90;;;;;;;6.11;100.00;99644.52;108990;1283;23647;-81
2023/12/31 15:53:29;;;;;;;56.80;43.90;;;;;;;5.93;100.00;99636.59;109418;1267;23784;-83
2023/12/31 15:56:16;;;;;;;73.00;51.00;;;;;;;5.78;100.00;99637.17;109440;1275;21980;-80
2023/12/31 15:59:37;;;;;;;64.90;47.50;;;;;;;5.67;100.00;99632.66;109367;1275;21986;-82
2023/12/31 16:02:50;;;;;;;;;;;;;;;;;;;;;
2023/12/31 16:06:46;;;;;;;57.20;40.30;;;;;;;5.43;100.00;99636.11;109716;1272;22009;-81
2023/12/31 16:10:30;;;;;;;;;;;;;;;;;;;;;
2023/12/31 16:14:05;;;;;;;;;;;;;;;;;;;;;
2023/12/31 16:17:43;;;;;;;79.00;52.50;;;;;;;5.32;100.00;99629.87;109548;1274;22633;-81
2023/12/31 16:21:04;;;;;;;64.90;46.80;;;;;;;5.29;100.00;99636.15;109388;1270;21990;-81
2023/12/31 16:27:35;;;;;;;55.60;40.30;;;;;;;5.27;100.00;99634.31;110215;1267;22991;-82
2023/12/31 16:32:42;;;;;;;72.00;48.10;;;;;;;5.24;100.00;99627.14;109440;1274;22024;-81
2023/12/31 16:37:19;;;;;;;83.90;57.20;;;;;;;5.17;100.00;99622.02;109060;1282;22072;-82
2023/12/31 16:40:30;;;;;;;90.20;65.50;;;;;;;5.13;100.00;99614.54;108128;1291;22089;-81
2023/12/31 16:42:57;;;;;;;80.70;59.70;;;;;;;5.12;100.00;99614.89;108005;1296;22029;-82
2023/12/31 16:46:54;;;;;;;;;;;;;;;;;;;;;
2023/12/31 16:49:47;;;;;;;76.90;55.50;;;;;;;5.09;100.00;99613.95;108229;1294;23741;-81
2023/12/31 16:53:27;;;;;;;69.20;50.30;;;;;;;5.09;100.00;99610.50;108275;1294;22059;-80
2023/12/31 16:56:06;;;;;;;65.90;47.20;;;;;;;5.06;100.00;99596.58;108340;1291;22975;-79
2023/12/31 16:58:48;;;;;;;64.70;48.60;;;;;;;5.05;100.00;99590.75;108216;1292;22015;-80
2023/12/31 17:02:10;;;;;;;61.30;46.50;;;;;;;5.06;100.00;99590.38;108400;1291;21994;-83
2023/12/31 17:09:16;;;;;;;82.10;56.00;;;;;;;5.04;100.00;99594.41;107233;1302;23666;-80
2023/12/31 17:15:14;;;;;;;95.50;63.00;;;;;;;5.01;100.00;99594.14;107528;1298;23853;-83
2023/12/31 17:17:49;;;;;;;86.10;56.40;;;;;;;5.00;100.00;99589.85;108052;1294;23652;-82
2023/12/31 17:21:08;;;;;;;77.00;53.90;;;;;;;5.01;100.00;99583.78;108285;1288;22624;-83
2023/12/31 17:24:00;;;;;;;83.00;58.70;;;;;;;4.99;100.00;99579.38;108359;1289;22008;-81
2023/12/31 17:26:32;;;;;;;77.50;51.90;;;;;;;5.00;100.00;99576.92;108804;1278;22031;-81
2023/12/31 17:29:28;;;;;;;67.40;48.10;;;;;;;4.94;100.00;99565.35;109193;1278;22445;-83
2023/12/31 17:32:06;;;;;;;60.90;42.70;;;;;;;5.01;100.00;99575.88;108665;1284;22016;-82
2023/12/31 17:35:12;;;;;;;58.10;37.00;;;;;;;5.01;100.00;99581.75;108751;1277;22029;-81
2023/12/31 17:37:44;;;;;;;;;;;;;;;5.01;100.00;99578.63;108680;1284;22023;-84
2023/12/31 17:40:15;;;;;;;51.20;37.10;;;;;;;4.93;100.00;99578.84;108638;1284;22012;-83
2023/12/31 17:42:47;;;;;;;51.80;35.10;;;;;;;4.92;100.00;99581.27;108978;1277;22007;-84
2023/12/31 17:45:42;;;;;;;44.80;32.70;;;;;;;4.87;100.00;99566.26;109021;1277;23621;-83
2023/12/31 17:48:40;;;;;;;50.70;31.90;;;;;;;4.95;100.00;99580.16;108828;1282;23729;-81
2023/12/31 17:51:31;;;;;;;45.40;28.70;;;;;;;4.98;100.00;99576.99;109241;1276;22064;-81
2023/12/31 17:54:00;;;;;;;38.70;28.60;;;;;;;5.00;100.00;99578.65;109305;1276;23702;-79
2023/12/31 17:56:38;;;;;;;40.40;28.40;;;;;;;5.03;100.00;99577.71;109070;1276;22957;-85